Terminal Aerodrome Forecast
Issued by NWS Twin Cities, MN

Home | Current Version | Previous Version | Graphics & Text | Print | Product List | Glossary On
Versions: 1 2 3 4 5 6 7 8 9 10 11 12 13 14 15 16 17 18 19
000
FTUS43 KMPX 281700
TAFSTC
TAF
KSTC 281732Z 2818/2918 19008KT P6SM FEW050
     FM282000 21009KT P6SM SCT060
     FM290000 27005KT P6SM SCT040 BKN080
     FM290700 36004KT P6SM VCSH OVC025
     FM290900 01005KT 6SM -RA BR BKN008 OVC016=

USA.gov is the U.S. government's official web portal to all federal, state and local government web resources and services.